Time,TemperatureF,DewpointF,PressureIn,WindDirection,WindDirectionDegrees,WindSpeedMPH,WindSpeedGustMPH,Humidity,HourlyPrecipIn,Conditions,Clouds,dailyrainin,SolarRadiationWatts/m^2,SoftwareType,DateUTC
2013-06-01 00:01:00,36.0,34.0,-100.00,NNW,338,7.0,21.0,91,0.00,,,0.44,0.000000,,2013-06-01 06:01:00,
2013-06-01 00:12:00,36.0,34.0,-100.00,NNW,338,7.0,21.0,91,0.00,,,0.44,0.000000,,2013-06-01 06:12:00,
2013-06-01 00:22:00,36.0,34.0,-100.00,NNW,338,7.0,21.0,91,0.00,,,0.44,0.000000,,2013-06-01 06:22:00,
2013-06-01 00:32:00,36.0,34.0,-100.00,NNW,338,7.0,21.0,91,0.00,,,0.44,0.000000,,2013-06-01 06:32:00,
2013-06-01 00:52:00,36.0,33.0,-100.00,NNW,335,8.0,24.0,90,0.00,,,0.39,0.000000,,2013-06-01 06:52:00,
2013-06-01 01:01:00,36.0,33.0,-100.00,NNW,335,8.0,24.0,90,0.00,,,0.39,0.000000,,2013-06-01 07:01:00,
2013-06-01 01:11:00,36.0,33.0,-100.00,NNW,335,8.0,24.0,90,0.00,,,0.39,0.000000,,2013-06-01 07:11:00,
2013-06-01 01:22:00,36.0,33.0,-100.00,NNW,335,8.0,24.0,90,0.00,,,0.39,0.000000,,2013-06-01 07:22:00,
2013-06-01 01:31:00,36.0,33.0,-100.00,NNW,335,8.0,24.0,90,0.00,,,0.39,0.000000,,2013-06-01 07:31:00,
2013-06-01 02:02:00,36.0,33.0,-100.00,NNW,335,9.0,23.0,90,0.00,,,0.34,0.000000,,2013-06-01 08:02:00,
2013-06-01 02:11:00,36.0,33.0,-100.00,NNW,335,9.0,23.0,90,0.00,,,0.34,0.000000,,2013-06-01 08:11:00,
2013-06-01 02:21:00,36.0,33.0,-100.00,NNW,335,9.0,23.0,90,0.00,,,0.34,0.000000,,2013-06-01 08:21:00,
2013-06-01 02:32:00,36.0,33.0,-100.00,NNW,335,9.0,23.0,90,0.00,,,0.34,0.000000,,2013-06-01 08:32:00,
2013-06-01 02:52:00,35.0,32.0,-100.00,NNW,339,9.0,22.0,88,0.01,,,0.32,0.000000,,2013-06-01 08:52:00,
2013-06-01 03:01:00,35.0,32.0,-100.00,NNW,339,9.0,22.0,88,0.01,,,0.32,0.000000,,2013-06-01 09:01:00,
2013-06-01 03:12:00,35.0,32.0,-100.00,NNW,339,9.0,22.0,88,0.01,,,0.32,0.000000,,2013-06-01 09:12:00,
2013-06-01 03:21:00,35.0,32.0,-100.00,NNW,339,9.0,22.0,88,0.01,,,0.32,0.000000,,2013-06-01 09:21:00,
2013-06-01 03:33:00,35.0,32.0,-100.00,NNW,339,9.0,22.0,88,0.01,,,0.32,0.000000,,2013-06-01 09:33:00,
2013-06-01 03:53:00,35.0,32.0,-100.00,NNW,340,8.0,22.0,88,0.00,,,0.31,0.000000,,2013-06-01 09:53:00,
2013-06-01 04:02:00,35.0,32.0,-100.00,NNW,340,8.0,22.0,88,0.00,,,0.31,0.000000,,2013-06-01 10:02:00,
2013-06-01 04:13:00,35.0,32.0,-100.00,NNW,340,8.0,22.0,88,0.00,,,0.31,0.000000,,2013-06-01 10:13:00,
2013-06-01 04:22:00,35.0,32.0,-100.00,NNW,340,8.0,22.0,88,0.00,,,0.31,0.000000,,2013-06-01 10:22:00,
2013-06-01 04:33:00,35.0,32.0,-100.00,NNW,340,8.0,22.0,88,0.00,,,0.31,0.000000,,2013-06-01 10:33:00,
2013-06-01 04:52:00,34.0,31.0,-100.00,NNW,340,9.0,25.0,88,0.00,,,0.29,0.000000,,2013-06-01 10:52:00,
2013-06-01 05:02:00,34.0,31.0,-100.00,NNW,340,9.0,25.0,88,0.00,,,0.29,0.000000,,2013-06-01 11:02:00,
2013-06-01 05:11:00,34.0,31.0,-100.00,NNW,340,9.0,25.0,88,0.00,,,0.29,0.000000,,2013-06-01 11:11:00,
2013-06-01 05:21:00,34.0,31.0,-100.00,NNW,340,9.0,25.0,88,0.00,,,0.29,0.000000,,2013-06-01 11:21:00,
2013-06-01 05:32:00,34.0,31.0,-100.00,NNW,340,9.0,25.0,88,0.00,,,0.29,0.000000,,2013-06-01 11:32:00,
2013-06-01 05:52:00,33.0,30.0,-100.00,NNW,340,9.0,19.0,88,0.00,,,0.27,4.000000,,2013-06-01 11:52:00,
2013-06-01 06:01:00,33.0,30.0,-100.00,NNW,340,9.0,19.0,88,0.00,,,0.27,4.000000,,2013-06-01 12:01:00,
2013-06-01 06:12:00,33.0,30.0,-100.00,NNW,340,9.0,19.0,88,0.00,,,0.27,4.000000,,2013-06-01 12:12:00,
2013-06-01 06:21:00,33.0,30.0,-100.00,NNW,340,9.0,19.0,88,0.00,,,0.27,4.000000,,2013-06-01 12:21:00,
2013-06-01 06:32:00,33.0,30.0,-100.00,NNW,340,9.0,19.0,88,0.00,,,0.27,4.000000,,2013-06-01 12:32:00,
2013-06-01 06:52:00,35.0,32.0,-100.00,NNW,337,8.0,20.0,90,0.00,,,0.25,17.000000,,2013-06-01 12:52:00,
2013-06-01 07:01:00,35.0,32.0,-100.00,NNW,337,8.0,20.0,90,0.00,,,0.25,17.000000,,2013-06-01 13:01:00,
2013-06-01 07:11:00,35.0,32.0,-100.00,NNW,337,8.0,20.0,90,0.00,,,0.25,17.000000,,2013-06-01 13:11:00,
2013-06-01 07:22:00,35.0,32.0,-100.00,NNW,337,8.0,20.0,90,0.00,,,0.25,17.000000,,2013-06-01 13:22:00,
2013-06-01 07:32:00,35.0,32.0,-100.00,NNW,337,8.0,20.0,90,0.00,,,0.25,17.000000,,2013-06-01 13:32:00,
2013-06-01 07:52:00,37.0,32.0,-100.00,NNW,334,9.0,20.0,82,0.00,,,0.21,80.000000,,2013-06-01 13:52:00,
2013-06-01 08:02:00,37.0,32.0,-100.00,NNW,334,9.0,20.0,82,0.00,,,0.21,80.000000,,2013-06-01 14:02:00,
2013-06-01 08:11:00,37.0,32.0,-100.00,NNW,334,9.0,20.0,82,0.00,,,0.21,80.000000,,2013-06-01 14:11:00,
2013-06-01 08:21:00,37.0,32.0,-100.00,NNW,334,9.0,20.0,82,0.00,,,0.21,80.000000,,2013-06-01 14:21:00,
2013-06-01 08:32:00,37.0,32.0,-100.00,NNW,334,9.0,20.0,82,0.00,,,0.21,80.000000,,2013-06-01 14:32:00,
2013-06-01 08:52:00,40.0,28.0,-100.00,NNW,335,8.0,23.0,63,0.00,,,0.19,63.000000,,2013-06-01 14:52:00,
2013-06-01 09:02:00,40.0,28.0,-100.00,NNW,335,8.0,23.0,63,0.00,,,0.19,63.000000,,2013-06-01 15:02:00,
2013-06-01 09:11:00,40.0,28.0,-100.00,NNW,335,8.0,23.0,63,0.00,,,0.19,63.000000,,2013-06-01 15:11:00,
2013-06-01 09:21:00,40.0,28.0,-100.00,NNW,335,8.0,23.0,63,0.00,,,0.19,63.000000,,2013-06-01 15:21:00,
2013-06-01 09:33:00,40.0,28.0,-100.00,NNW,335,8.0,23.0,63,0.00,,,0.19,63.000000,,2013-06-01 15:33:00,
2013-06-01 09:54:00,42.0,31.0,-100.00,NW,324,8.0,20.0,65,0.00,,,0.18,650.000000,,2013-06-01 15:54:00,
2013-06-01 10:03:00,42.0,31.0,-100.00,NW,324,8.0,20.0,65,0.00,,,0.18,650.000000,,2013-06-01 16:03:00,
2013-06-01 10:12:00,42.0,31.0,-100.00,NW,324,8.0,20.0,65,0.00,,,0.18,650.000000,,2013-06-01 16:12:00,
2013-06-01 10:23:00,42.0,31.0,-100.00,NW,324,8.0,20.0,65,0.00,,,0.18,650.000000,,2013-06-01 16:23:00,
2013-06-01 10:33:00,42.0,31.0,-100.00,NW,324,8.0,20.0,65,0.00,,,0.18,650.000000,,2013-06-01 16:33:00,
2013-06-01 11:02:00,44.0,32.0,-100.00,NNW,346,7.0,19.0,63,0.00,,,0.16,868.000000,,2013-06-01 17:02:00,
2013-06-01 11:12:00,44.0,32.0,-100.00,NNW,346,7.0,19.0,63,0.00,,,0.16,868.000000,,2013-06-01 17:12:00,
2013-06-01 11:22:00,44.0,32.0,-100.00,NNW,346,7.0,19.0,63,0.00,,,0.16,868.000000,,2013-06-01 17:22:00,
2013-06-01 11:32:00,44.0,32.0,-100.00,NNW,346,7.0,19.0,63,0.00,,,0.16,868.000000,,2013-06-01 17:32:00,
2013-06-01 11:52:00,46.0,32.0,-100.00,NW,325,6.0,15.0,59,0.00,,,0.15,976.000000,,2013-06-01 17:52:00,
2013-06-01 12:01:00,46.0,32.0,-100.00,NW,325,6.0,15.0,59,0.00,,,0.15,976.000000,,2013-06-01 18:01:00,
2013-06-01 12:12:00,46.0,32.0,-100.00,NW,325,6.0,15.0,59,0.00,,,0.15,976.000000,,2013-06-01 18:12:00,
2013-06-01 12:22:00,46.0,32.0,-100.00,NW,325,6.0,15.0,59,0.00,,,0.15,976.000000,,2013-06-01 18:22:00,
2013-06-01 12:32:00,46.0,32.0,-100.00,NW,325,6.0,15.0,59,0.00,,,0.15,976.000000,,2013-06-01 18:32:00,
2013-06-01 12:52:00,49.0,33.0,-100.00,NNW,333,7.0,16.0,53,0.00,,,0.14,1053.000000,,2013-06-01 18:52:00,
2013-06-01 13:02:00,49.0,33.0,-100.00,NNW,333,7.0,16.0,53,0.00,,,0.14,1053.000000,,2013-06-01 19:02:00,
2013-06-01 13:11:00,49.0,33.0,-100.00,NNW,333,7.0,16.0,53,0.00,,,0.14,1053.000000,,2013-06-01 19:11:00,
2013-06-01 13:21:00,49.0,33.0,-100.00,NNW,333,7.0,16.0,53,0.00,,,0.14,1053.000000,,2013-06-01 19:21:00,
2013-06-01 13:32:00,49.0,33.0,-100.00,NNW,333,7.0,16.0,53,0.00,,,0.14,1053.000000,,2013-06-01 19:32:00,
2013-06-01 13:52:00,48.0,32.0,-100.00,NW,319,6.0,18.0,53,0.00,,,0.13,849.000000,,2013-06-01 19:52:00,
2013-06-01 14:02:00,48.0,32.0,-100.00,NW,319,6.0,18.0,53,0.00,,,0.13,849.000000,,2013-06-01 20:02:00,
2013-06-01 14:12:00,48.0,32.0,-100.00,NW,319,6.0,18.0,53,0.00,,,0.13,849.000000,,2013-06-01 20:12:00,
2013-06-01 14:21:00,48.0,32.0,-100.00,NW,319,6.0,18.0,53,0.00,,,0.13,849.000000,,2013-06-01 20:21:00,
2013-06-01 14:32:00,48.0,32.0,-100.00,NW,319,6.0,18.0,53,0.00,,,0.13,849.000000,,2013-06-01 20:32:00,
2013-06-01 14:52:00,51.0,34.0,-100.00,NW,319,6.0,15.0,51,0.00,,,0.12,919.000000,,2013-06-01 20:52:00,
2013-06-01 15:01:00,51.0,34.0,-100.00,NW,319,6.0,15.0,51,0.00,,,0.12,919.000000,,2013-06-01 21:01:00,
2013-06-01 15:11:00,51.0,34.0,-100.00,NW,319,6.0,15.0,51,0.00,,,0.12,919.000000,,2013-06-01 21:11:00,
2013-06-01 15:21:00,51.0,34.0,-100.00,NW,319,6.0,15.0,51,0.00,,,0.12,919.000000,,2013-06-01 21:21:00,
2013-06-01 15:33:00,51.0,34.0,-100.00,NW,319,6.0,15.0,51,0.00,,,0.12,919.000000,,2013-06-01 21:33:00,
2013-06-01 16:03:00,51.0,33.0,-100.00,NNW,331,5.0,15.0,49,0.00,,,0.11,675.000000,,2013-06-01 22:03:00,
2013-06-01 16:12:00,51.0,33.0,-100.00,NNW,331,5.0,15.0,49,0.00,,,0.11,675.000000,,2013-06-01 22:12:00,
2013-06-01 16:23:00,51.0,33.0,-100.00,NNW,331,5.0,15.0,49,0.00,,,0.11,675.000000,,2013-06-01 22:23:00,
2013-06-01 16:33:00,51.0,33.0,-100.00,NNW,331,5.0,15.0,49,0.00,,,0.11,675.000000,,2013-06-01 22:33:00,
2013-06-01 16:53:00,53.0,33.0,-100.00,NNW,345,4.0,11.0,47,0.00,,,0.10,258.000000,,2013-06-01 22:53:00,
2013-06-01 17:02:00,53.0,33.0,-100.00,NNW,345,4.0,11.0,47,0.00,,,0.10,258.000000,,2013-06-01 23:02:00,
2013-06-01 17:11:00,53.0,33.0,-100.00,NNW,345,4.0,11.0,47,0.00,,,0.10,258.000000,,2013-06-01 23:11:00,
2013-06-01 17:22:00,53.0,33.0,-100.00,NNW,345,4.0,11.0,47,0.00,,,0.10,258.000000,,2013-06-01 23:22:00,
2013-06-01 17:32:00,53.0,33.0,-100.00,NNW,345,4.0,11.0,47,0.00,,,0.10,258.000000,,2013-06-01 23:32:00,
2013-06-01 17:52:00,53.0,32.0,-100.00,NW,317,4.0,12.0,45,0.00,,,0.07,330.000000,,2013-06-01 23:52:00,
2013-06-01 18:02:00,53.0,32.0,-100.00,NW,317,4.0,12.0,45,0.00,,,0.07,330.000000,,2013-06-02 00:02:00,
2013-06-01 18:11:00,53.0,32.0,-100.00,NW,317,4.0,12.0,45,0.00,,,0.07,330.000000,,2013-06-02 00:11:00,
2013-06-01 18:21:00,53.0,32.0,-100.00,NW,317,4.0,12.0,45,0.00,,,0.07,330.000000,,2013-06-02 00:21:00,
2013-06-01 18:32:00,53.0,32.0,-100.00,NW,317,4.0,12.0,45,0.00,,,0.07,330.000000,,2013-06-02 00:32:00,
2013-06-01 18:52:00,53.0,32.0,-100.00,WNW,300,4.0,9.0,44,0.00,,,0.04,200.000000,,2013-06-02 00:52:00,
2013-06-01 19:01:00,53.0,32.0,-100.00,WNW,300,4.0,9.0,44,0.00,,,0.04,200.000000,,2013-06-02 01:01:00,
2013-06-01 19:11:00,53.0,32.0,-100.00,WNW,300,4.0,9.0,44,0.00,,,0.04,200.000000,,2013-06-02 01:11:00,
2013-06-01 19:21:00,53.0,32.0,-100.00,WNW,300,4.0,9.0,44,0.00,,,0.04,200.000000,,2013-06-02 01:21:00,
2013-06-01 19:32:00,53.0,32.0,-100.00,WNW,300,4.0,9.0,44,0.00,,,0.04,200.000000,,2013-06-02 01:32:00,
2013-06-01 19:52:00,51.0,33.0,-100.00,NW,313,3.0,8.0,50,0.00,,,0.01,154.000000,,2013-06-02 01:52:00,
2013-06-01 20:01:00,51.0,33.0,-100.00,NW,313,3.0,8.0,50,0.00,,,0.01,154.000000,,2013-06-02 02:01:00,
2013-06-01 20:12:00,51.0,33.0,-100.00,NW,313,3.0,8.0,50,0.00,,,0.01,154.000000,,2013-06-02 02:12:00,
2013-06-01 20:21:00,51.0,33.0,-100.00,NW,313,3.0,8.0,50,0.00,,,0.01,154.000000,,2013-06-02 02:21:00,
2013-06-01 20:32:00,51.0,33.0,-100.00,NW,313,3.0,8.0,50,0.00,,,0.01,154.000000,,2013-06-02 02:32:00,
2013-06-01 20:52:00,43.0,33.0,-100.00,NNW,346,1.0,6.0,67,0.00,,,0.01,15.000000,,2013-06-02 02:52:00,
2013-06-01 21:02:00,43.0,33.0,-100.00,NNW,346,1.0,6.0,67,0.00,,,0.01,15.000000,,2013-06-02 03:02:00,
2013-06-01 21:11:00,43.0,33.0,-100.00,NNW,346,1.0,6.0,67,0.00,,,0.01,15.000000,,2013-06-02 03:11:00,
2013-06-01 21:21:00,43.0,33.0,-100.00,NNW,346,1.0,6.0,67,0.00,,,0.01,15.000000,,2013-06-02 03:21:00,
2013-06-01 21:33:00,43.0,33.0,-100.00,NNW,346,1.0,6.0,67,0.00,,,0.01,15.000000,,2013-06-02 03:33:00,
2013-06-01 21:53:00,36.0,32.0,-100.00,NNE,12,2.0,3.0,84,0.00,,,0.01,1.000000,,2013-06-02 03:53:00,
2013-06-01 22:02:00,36.0,-99.9,-100.00,NNE,12,2.0,3.0,84,0.00,,,0.01,1.000000,,2013-06-02 04:02:00,
2013-06-01 22:13:00,36.0,32.0,-100.00,NNE,12,2.0,3.0,84,0.00,,,0.01,1.000000,,2013-06-02 04:13:00,
2013-06-01 22:23:00,36.0,32.0,-100.00,NNE,12,2.0,3.0,84,0.00,,,0.01,1.000000,,2013-06-02 04:23:00,
2013-06-01 22:33:00,36.0,32.0,-100.00,NNE,12,2.0,3.0,84,0.00,,,0.01,1.000000,,2013-06-02 04:33:00,
2013-06-01 22:53:00,31.0,28.0,-100.00,NNE,16,2.0,4.0,90,0.00,,,0.01,0.000000,,2013-06-02 04:53:00,
2013-06-01 23:02:00,31.0,28.0,-100.00,NNE,16,2.0,4.0,90,0.00,,,0.01,0.000000,,2013-06-02 05:02:00,
2013-06-01 23:12:00,31.0,28.0,-100.00,NNE,16,2.0,4.0,90,0.00,,,0.01,0.000000,,2013-06-02 05:12:00,
2013-06-01 23:22:00,31.0,28.0,-100.00,NNE,16,2.0,4.0,90,0.00,,,0.01,0.000000,,2013-06-02 05:22:00,
2013-06-01 23:32:00,31.0,28.0,-100.00,NNE,16,2.0,4.0,90,0.00,,,0.01,0.000000,,2013-06-02 05:32:00,
2013-06-01 23:52:00,29.0,27.0,-100.00,NNE,19,1.0,4.0,93,0.00,,,0.01,0.000000,,2013-06-02 05:52:00,